• Join FlightAware (Why Join?)
  • Login
  • US Flag 
03:06AM EDT


 

Airport Tracker/Info


-or-


 

Live Flight TrackerFlight Track Log ✈ SWA962 ✈ 26-Jun-2013 ✈ KPDX - KPHX

Flight Track Log - Related Links

Times and Time Zones

All times are in EDT time to prevent confusion due to time zone crossing. See the SWA962 flight status page for this flight to view local times or setup timezone preferences in your user account.

Time Position Orientation Groundspeed Altitude Reporting Facility
EDT Latitude Longitude Course Direction KTS MPH feet Rate Location/Type
09:13AM 45.5850 -122.5739 106° East 143 165 800  Level Seattle Center
09:14AM 45.5781 -122.5397 106° East 170 196 1,600 1,920 Climbing Seattle Center
09:15AM 45.5631 -122.4439 103° East 253 291 4,000 2,580 Climbing Seattle Center
09:15AM 45.5544 -122.3978 105° East 239 275 5,700 3,780 Climbing Seattle Center
09:16AM 45.5050 -122.3167 131° Southeast 276 318 9,900 3,660 Climbing Seattle Center
09:17AM 45.4422 -122.2306 136° Southeast 307 353 13,100 3,300 Climbing Seattle Center
09:18AM 45.3722 -122.1397 138° Southeast 335 386 16,600 3,180 Climbing Seattle Center
09:19AM 45.2961 -122.0442 139° Southeast 357 411 19,600 2,880 Climbing Seattle Center
09:20AM 45.2142 -121.9428 139° Southeast 383 441 22,500 2,700 Climbing Seattle Center
09:21AM 45.1258 -121.8314 138° Southeast 400 460 25,100 2,460 Climbing Seattle Center
09:22AM 45.0383 -121.7239 139° Southeast 415 478 27,500 2,040 Climbing Seattle Center
09:23AM 44.9483 -121.6128 139° Southeast 430 495 29,300 1,740 Climbing Seattle Center
09:24AM 44.8556 -121.4975 139° Southeast 445 512 31,100 1,860 Climbing Seattle Center
09:25AM 44.7594 -121.3811 139° Southeast 455 524 33,100 2,040 Climbing Seattle Center
09:26AM 44.6658 -121.2667 139° Southeast 451 519 35,300 1,800 Climbing Seattle Center
09:27AM 44.5614 -121.1417 140° Southeast 448 516 36,800 1,380 Climbing Seattle Center
09:28AM 44.4636 -121.0211 139° Southeast 460 529 38,100 1,080 Climbing Seattle Center
09:29AM 44.3619 -120.9014 140° Southeast 466 536 39,000 420 Climbing Seattle Center
09:30AM 44.2794 -120.8025 139° Southeast 467 537 39,000  Level Seattle Center
09:31AM 44.1817 -120.6867 140° Southeast 465 535 39,000 240 Level Seattle Center
09:32AM 44.0842 -120.5736 140° Southeast 461 531 39,600 780 Climbing Seattle Center
09:33AM 43.9647 -120.4319 139° Southeast 470 541 40,600 660 Climbing Seattle Center
09:34AM 43.8633 -120.3111 139° Southeast 480 552 41,000 180 Climbing Seattle Center
09:35AM 43.7611 -120.1936 140° Southeast 480 552 41,000  Level Seattle Center
09:36AM 43.6594 -120.0756 140° Southeast 478 550 41,000  Level Seattle Center
09:37AM 43.5578 -119.9597 140° Southeast 477 549 41,000  Level Seattle Center
09:38AM 43.4556 -119.8417 140° Southeast 479 551 41,000  Level Seattle Center
09:39AM 43.3539 -119.7247 140° Southeast 478 550 41,000  Level Seattle Center
09:40AM 43.2583 -119.6164 140° Southeast 477 549 41,000  Level Seattle Center
09:41AM 43.1547 -119.4992 140° Southeast 481 554 41,000  Level Seattle Center
09:42AM 43.0317 -119.3611 141° Southeast 478 550 41,000  Level Seattle Center
09:43AM 42.9353 -119.2511 140° Southeast 486 559 41,000  Level Seattle Center
09:45AM 42.8419 -119.1367 138° Southeast 476 548 41,000  Level Seattle Center
09:46AM 42.7342 -118.9978 137° Southeast 475 547 41,000  Level Seattle Center
09:47AM 42.6431 -118.8828 137° Southeast 471 542 41,000  Level Seattle Center
09:48AM 42.5508 -118.7667 137° Southeast 473 544 41,000  Level Seattle Center
09:49AM 42.4275 -118.6128 137° Southeast 472 543 41,000  Level Salt Lake Center
09:50AM 42.3306 -118.4908 137° Southeast 477 549 41,000  Level Salt Lake Center
09:51AM 42.2369 -118.3769 138° Southeast 474 545 41,000  Level Salt Lake Center
09:52AM 42.1433 -118.2597 137° Southeast 478 550 41,000  Level Salt Lake Center
09:53AM 42.0333 -118.1244 138° Southeast 479 551 41,000  Level Salt Lake Center
09:54AM 41.9386 -118.0100 138° Southeast 478 550 41,000  Level Salt Lake Center
09:55AM 41.8297 -117.8761 137° Southeast 475 547 41,000  Level Salt Lake Center
09:56AM 41.7358 -117.7633 138° Southeast 473 544 41,000  Level Salt Lake Center
09:57AM 41.6267 -117.6306 138° Southeast 474 545 41,000  Level Salt Lake Center
09:58AM 41.5331 -117.5167 138° Southeast 475 547 41,000  Level Salt Lake Center
09:59AM 41.4386 -117.4047 138° Southeast 474 545 41,000  Level Salt Lake Center
10:00AM 41.3289 -117.2722 138° Southeast 476 548 41,000  Level Salt Lake Center
10:01AM 41.2336 -117.1606 139° Southeast 476 548 41,000  Level Salt Lake Center
10:02AM 41.1250 -117.0297 138° Southeast 473 544 41,000  Level Salt Lake Center
10:03AM 41.0294 -116.9183 139° Southeast 474 545 41,000  Level Salt Lake Center
10:04AM 40.9347 -116.8078 139° Southeast 474 545 41,000  Level Salt Lake Center
10:05AM 40.8222 -116.6767 139° Southeast 477 549 41,000  Level Salt Lake Center
10:06AM 40.7261 -116.5650 139° Southeast 477 549 41,000  Level Salt Lake Center
10:07AM 40.6306 -116.4536 138° Southeast 475 547 41,000  Level Salt Lake Center
10:08AM 40.5183 -116.3231 138° Southeast 478 550 41,000  Level Salt Lake Center
10:09AM 40.4194 -116.2108 139° Southeast 484 557 41,000  Level Salt Lake Center
10:10AM 40.3028 -116.0783 139° Southeast 492 566 41,000  Level Salt Lake Center
10:11AM 40.2053 -115.9658 139° Southeast 489 563 41,000  Level Salt Lake Center
10:12AM 40.1089 -115.8544 139° Southeast 484 557 41,000  Level Salt Lake Center
10:13AM 39.9947 -115.7264 139° Southeast 482 555 41,000  Level Salt Lake Center
10:14AM 39.8972 -115.6172 139° Southeast 482 555 41,000  Level Salt Lake Center
10:15AM 39.7800 -115.4914 140° Southeast 485 558 41,000  Level Salt Lake Center
10:16AM 39.6850 -115.3811 138° Southeast 481 554 41,000  Level Salt Lake Center
10:17AM 39.5886 -115.2725 139° Southeast 481 554 41,000  Level Salt Lake Center
10:18AM 39.4742 -115.1478 140° Southeast 480 552 41,000  Level Salt Lake Center
10:19AM 39.3750 -115.0414 140° Southeast 483 556 41,000  Level Salt Lake Center
10:20AM 39.2603 -114.9164 140° Southeast 483 556 41,000  Level Salt Lake Center
10:22AM 39.1658 -114.8139 140° Southeast 483 556 41,000  Level Salt Lake Center
10:23AM 39.0639 -114.6994 139° Southeast 486 559 41,000  Level Salt Lake Center
10:24AM 38.9406 -114.5661 140° Southeast 485 558 41,000  Level Salt Lake Center
10:25AM 38.8381 -114.4553 140° Southeast 483 556 41,000  Level Salt Lake Center
10:26AM 38.7342 -114.3439 140° Southeast 487 560 41,000  Level Salt Lake Center
10:27AM 38.6308 -114.2336 140° Southeast 484 557 41,000  Level Salt Lake Center
10:28AM 38.5269 -114.1236 140° Southeast 486 559 41,000  Level Salt Lake Center
10:29AM 38.4239 -114.0133 140° Southeast 485 558 41,000  Level Salt Lake Center
10:30AM 38.3203 -113.9050 141° Southeast 483 556 41,000  Level Salt Lake Center
10:31AM 38.1886 -113.7939 146° Southeast 479 551 41,000  Level Salt Lake Center
10:32AM 38.0753 -113.7172 152° Southeast 464 534 41,000  Level Salt Lake Center
10:33AM 37.9617 -113.6400 152° Southeast 465 535 41,000  Level Salt Lake Center
10:34AM 37.8483 -113.5625 152° Southeast 466 536 41,000  Level Salt Lake Center
10:35AM 37.7367 -113.4875 152° Southeast 459 528 41,000  Level Salt Lake Center
10:36AM 37.6250 -113.4128 152° Southeast 458 527 41,000  Level Salt Lake Center
10:37AM 37.4919 -113.3242 152° Southeast 456 525 41,000 -300 Level Salt Lake Center
10:38AM 37.3825 -113.2503 152° Southeast 452 520 40,400 -780 Descending Salt Lake Center
10:39AM 37.2717 -113.1761 152° Southeast 455 524 39,500 -960 Descending Salt Lake Center
10:40AM 37.1592 -113.1006 152° Southeast 461 531 38,500 -1,020 Descending Salt Lake Center
10:41AM 37.0464 -113.0261 152° Southeast 461 531 37,500 -1,380 Descending Salt Lake Center
10:42AM 36.9111 -112.9372 152° Southeast 460 529 35,700 -1,680 Descending Salt Lake Center
10:43AM 36.7978 -112.8625 152° Southeast 461 531 34,100 -1,320 Descending Salt Lake Center
10:44AM 36.6839 -112.7881 152° Southeast 463 533 33,000 -660 Descending Salt Lake Center
10:45AM 36.6381 -112.7581 152° Southeast 462 532 33,000  Level Los Angeles Center
10:46AM 36.5022 -112.6697 152° Southeast 460 529 33,000  Level Los Angeles Center
10:47AM 36.3878 -112.5950 152° Southeast 463 533 33,000  Level Los Angeles Center
10:48AM 36.2494 -112.5119 154° Southeast 464 534 33,000 -300 Level Los Angeles Center
10:49AM 36.1222 -112.4975 175° South 459 528 32,500 -780 Descending Los Angeles Center
10:50AM 35.9939 -112.4881 177° South 461 531 31,500 -1,140 Descending Los Angeles Center
10:51AM 35.8558 -112.4764 176° South 455 524 30,200 -1,260 Descending Los Angeles Center
10:52AM 35.7328 -112.4656 176° South 447 514 29,000 -600 Descending Los Angeles Center
10:53AM 35.6106 -112.4550 176° South 440 506 29,000  Level Los Angeles Center
10:54AM 35.4883 -112.4469 177° South 438 504 29,000  Level Los Angeles Center
10:55AM 35.3667 -112.4322 174° South 436 502 29,000  Level Los Angeles Center
10:56AM 35.2458 -112.4053 170° South 438 504 29,000  Level Albuquerque Center
10:57AM 35.1258 -112.3783 170° South 437 503 29,000 -180 Level Albuquerque Center
10:58AM 35.0058 -112.3519 170° South 437 503 28,700 -1,320 Descending Albuquerque Center
10:59AM 34.8883 -112.3275 170° South 434 499 26,300 -1,320 Descending Albuquerque Center
11:00AM 34.7731 -112.3028 170° South 428 493 26,000 -1,020 Descending Albuquerque Center
11:01AM 34.6583 -112.2778 170° South 424 488 24,200 -2,280 Descending Albuquerque Center
11:02AM 34.5278 -112.2492 170° South 411 473 21,400 -2,040 Descending Albuquerque Center
11:03AM 34.4236 -112.2258 170° South 397 457 20,000 -1,440 Descending Albuquerque Center
11:04AM 34.3258 -112.1989 167° South 380 437 18,500 -1,680 Descending Albuquerque Center
11:05AM 34.2339 -112.1750 168° South 359 413 16,600 -1,860 Descending Albuquerque Center
11:06AM 34.1428 -112.1508 168° South 340 391 14,700 -1,500 Descending Albuquerque Center
11:07AM 34.0369 -112.1411 176° South 320 368 13,500 -1,080 Descending Albuquerque Center
11:08AM 33.9503 -112.1514 186° South 318 366 12,500 -720 Descending Albuquerque Center
11:09AM 33.8719 -112.1631 187° South 286 329 12,100 -660 Descending Albuquerque Center
11:11AM 33.8036 -112.1778 190° South 255 293 11,200 -1,080 Descending Albuquerque Center
11:12AM 33.7392 -112.1911 190° South 239 275 9,900 -1,020 Descending Albuquerque Center
11:13AM 33.6681 -112.2058 190° South 215 247 9,100 -960 Descending Albuquerque Center
11:14AM 33.6169 -112.2172 191° South 191 220 8,000 -1,140 Descending Albuquerque Center
11:15AM 33.5661 -112.2306 192° South 187 215 6,800 -1,200 Descending Albuquerque Center
11:16AM 33.5175 -112.2494 198° South 186 214 5,600 -1,200 Descending Albuquerque Center
11:17AM 33.4708 -112.2369 167° South 190 219 4,400 -1,200 Descending Albuquerque Center
11:18AM 33.4436 -112.1853 122° Southeast 187 215 3,200 -900 Descending Albuquerque Center
11:19AM 33.4333 -112.1167 100° East 180 207 2,800 -720 Descending Phoenix TRACON
11:20AM 33.4333 -112.0667 90° East 133 153 1,900 -840 Descending Phoenix TRACON